createdAt,value
2023-01-11T00:00:06.325Z,84.82
2023-01-11T00:01:06.392Z,84.37
2023-01-11T00:02:06.511Z,84.47
2023-01-11T00:03:06.502Z,84.31
2023-01-11T00:04:06.524Z,85.44
2023-01-11T00:05:06.526Z,85.19
2023-01-11T00:06:06.574Z,85.54
2023-01-11T00:07:06.597Z,85.99
2023-01-11T00:08:06.613Z,86.71
2023-01-11T00:09:06.642Z,86.46
2023-01-11T00:10:06.694Z,85.91
2023-01-11T00:11:06.761Z,85.95
2023-01-11T00:12:06.806Z,86.87
2023-01-11T00:13:06.869Z,86.36
2023-01-11T00:14:06.916Z,86.66
2023-01-11T00:15:06.944Z,87.32
2023-01-11T00:16:07.067Z,87.38
2023-01-11T00:17:06.994Z,86.57
2023-01-11T00:18:06.997Z,86.66
2023-01-11T00:19:07.029Z,85.71
2023-01-11T00:20:07.109Z,86.15
2023-01-11T00:21:07.152Z,86.25
2023-01-11T00:22:07.151Z,86.11
2023-01-11T00:23:07.172Z,86.11
2023-01-11T00:24:07.250Z,85.85
2023-01-11T00:25:07.290Z,86.25
2023-01-11T00:26:07.281Z,86.46
2023-01-11T00:27:07.316Z,86.15
2023-01-11T00:28:07.377Z,85.91
2023-01-11T00:29:07.392Z,85.50
2023-01-11T00:30:07.440Z,85.39
2023-01-11T00:31:07.501Z,84.99
2023-01-11T00:32:07.443Z,85.39
2023-01-11T00:33:07.440Z,85.91
2023-01-11T00:34:07.450Z,85.80
2023-01-11T00:35:07.523Z,85.50
2023-01-11T00:36:07.505Z,85.50
2023-01-11T00:37:07.564Z,84.95
2023-01-11T00:38:07.601Z,84.44
2023-01-11T00:39:07.656Z,84.74
2023-01-11T00:40:07.681Z,84.99
2023-01-11T00:41:07.729Z,84.84
2023-01-11T00:42:07.723Z,84.19
2023-01-11T00:43:07.732Z,83.98
2023-01-11T00:44:07.711Z,83.58
2023-01-11T00:45:07.775Z,83.82
2023-01-11T00:46:07.899Z,84.29
2023-01-11T00:47:07.887Z,84.03
2023-01-11T00:48:07.917Z,84.95
2023-01-11T00:49:07.944Z,84.84
2023-01-11T00:50:08.006Z,84.84
2023-01-11T00:51:08.039Z,84.53
2023-01-11T00:52:08.035Z,84.03
2023-01-11T00:53:08.085Z,84.33
2023-01-11T00:54:08.096Z,84.12
2023-01-11T00:55:08.075Z,83.78
2023-01-11T00:56:08.116Z,83.58
2023-01-11T00:57:08.170Z,83.68
2023-01-11T00:58:08.224Z,83.37
2023-01-11T00:59:08.235Z,83.06
2023-01-11T01:00:08.236Z,83.37
2023-01-11T01:01:08.335Z,83.37
2023-01-11T01:02:08.446Z,83.03
2023-01-11T01:03:08.392Z,82.51
2023-01-11T01:04:08.412Z,82.82
2023-01-11T01:05:08.401Z,83.06
2023-01-11T01:06:08.442Z,82.71
2023-01-11T01:07:08.448Z,83.37
2023-01-11T01:08:08.488Z,82.92
2023-01-11T01:09:08.548Z,82.71
2023-01-11T01:10:08.549Z,82.62
2023-01-11T01:11:08.557Z,82.10
2023-01-11T01:12:08.561Z,83.23
2023-01-11T01:13:08.636Z,82.86
2023-01-11T01:14:08.680Z,83.17
2023-01-11T01:15:08.704Z,82.92
2023-01-11T01:16:08.869Z,82.51
2023-01-11T01:17:08.774Z,83.17
2023-01-11T01:18:08.777Z,82.82
2023-01-11T01:19:08.801Z,82.41
2023-01-11T01:20:08.838Z,82.62
2023-01-11T01:21:08.872Z,82.92
2023-01-11T01:22:08.862Z,83.23
2023-01-11T01:23:08.894Z,82.98
2023-01-11T01:24:08.922Z,81.96
2023-01-11T01:25:09.008Z,82.31
2023-01-11T01:26:09.044Z,82.48
2023-01-11T01:27:09.127Z,82.48
2023-01-11T01:28:09.163Z,82.37
2023-01-11T01:29:09.244Z,81.65
2023-01-11T01:30:09.285Z,82.48
2023-01-11T01:31:09.308Z,82.82
2023-01-11T01:32:09.347Z,82.82
2023-01-11T01:33:09.368Z,82.82
2023-01-11T01:34:09.432Z,82.57
2023-01-11T01:35:09.461Z,82.03
2023-01-11T01:36:09.491Z,82.27
2023-01-11T01:37:09.511Z,82.27
2023-01-11T01:38:09.518Z,82.78
2023-01-11T01:39:09.571Z,82.34
2023-01-11T01:40:09.597Z,81.62
2023-01-11T01:41:09.639Z,82.07
2023-01-11T01:42:09.658Z,82.34
2023-01-11T01:43:09.717Z,82.13
2023-01-11T01:44:09.768Z,82.48
2023-01-11T01:45:09.789Z,82.98
2023-01-11T01:46:09.818Z,82.75
2023-01-11T01:47:09.869Z,82.75
2023-01-11T01:48:09.859Z,82.34
2023-01-11T01:49:09.907Z,82.68
2023-01-11T01:50:09.909Z,82.98
2023-01-11T01:51:09.920Z,83.25
2023-01-11T01:52:09.992Z,82.03
2023-01-11T01:53:09.999Z,82.23
2023-01-11T01:54:10.039Z,82.43
2023-01-11T01:55:10.120Z,81.79
2023-01-11T01:56:10.092Z,81.79
2023-01-11T01:57:10.122Z,82.23
2023-01-11T01:58:10.163Z,82.23
2023-01-11T01:59:10.141Z,82.43
2023-01-11T02:00:10.163Z,82.84
2023-01-11T02:01:10.142Z,82.54
2023-01-11T02:02:10.174Z,82.64
2023-01-11T02:03:10.237Z,82.43
2023-01-11T02:04:10.224Z,82.05
2023-01-11T02:05:10.321Z,80.76
2023-01-11T02:06:10.290Z,81.99
2023-01-11T02:07:10.358Z,82.40
2023-01-11T02:08:10.333Z,82.23
2023-01-11T02:09:10.404Z,82.75
2023-01-11T02:10:10.427Z,82.95
2023-01-11T02:11:10.414Z,82.75
2023-01-11T02:12:10.476Z,82.34
2023-01-11T02:13:10.495Z,82.81
2023-01-11T02:14:13.316Z,81.93
2023-01-11T02:15:10.462Z,81.99
2023-01-11T02:16:10.588Z,82.13
2023-01-11T02:17:10.517Z,81.48
2023-01-11T02:18:10.587Z,81.99
2023-01-11T02:19:10.566Z,81.85
2023-01-11T02:20:10.627Z,81.54
2023-01-11T02:21:10.629Z,81.58
2023-01-11T02:22:10.647Z,81.68
2023-01-11T02:23:10.661Z,82.20
2023-01-11T02:24:10.679Z,81.79
2023-01-11T02:25:10.667Z,81.68
2023-01-11T02:26:10.694Z,82.13
2023-01-11T02:27:10.721Z,82.50
2023-01-11T02:28:10.772Z,81.65
2023-01-11T02:29:10.844Z,81.68
2023-01-11T02:30:10.918Z,81.54
2023-01-11T02:31:10.919Z,80.73
2023-01-11T02:32:10.899Z,81.13
2023-01-11T02:33:10.958Z,80.93
2023-01-11T02:34:11.009Z,80.28
2023-01-11T02:35:11.065Z,80.07
2023-01-11T02:36:11.139Z,79.97
2023-01-11T02:37:11.131Z,80.52
2023-01-11T02:38:11.196Z,80.83
2023-01-11T02:39:11.240Z,80.87
2023-01-11T02:40:11.243Z,81.58
2023-01-11T02:41:11.319Z,80.93
2023-01-11T02:42:11.377Z,81.03
2023-01-11T02:43:11.388Z,81.74
2023-01-11T02:44:11.383Z,82.09
2023-01-11T02:45:11.382Z,82.29
2023-01-11T02:46:11.477Z,82.40
2023-01-11T02:47:11.442Z,82.95
2023-01-11T02:48:11.463Z,82.60
2023-01-11T02:49:11.473Z,82.70
2023-01-11T02:50:11.501Z,82.56
2023-01-11T02:51:11.503Z,82.26
2023-01-11T02:52:11.577Z,82.70
2023-01-11T02:53:11.604Z,83.62
2023-01-11T02:54:11.619Z,83.66
2023-01-11T02:55:11.604Z,84.48
2023-01-11T02:56:11.625Z,83.83
2023-01-11T02:57:11.636Z,84.09
2023-01-11T02:58:11.694Z,83.28
2023-01-11T02:59:11.757Z,83.73
2023-01-11T03:00:11.783Z,84.58
2023-01-11T03:01:11.826Z,85.10
2023-01-11T03:02:11.917Z,84.85
2023-01-11T03:03:11.989Z,85.20
2023-01-11T03:04:11.988Z,85.40
2023-01-11T03:05:12.016Z,84.89
2023-01-11T03:06:12.020Z,84.55
2023-01-11T03:07:12.037Z,84.55
2023-01-11T03:08:12.091Z,84.44
2023-01-11T03:09:12.157Z,84.24
2023-01-11T03:10:12.178Z,83.73
2023-01-11T03:11:12.204Z,84.38
2023-01-11T03:12:12.213Z,84.79
2023-01-11T03:13:12.248Z,83.83
2023-01-11T03:14:12.250Z,83.73
2023-01-11T03:15:12.270Z,83.42
2023-01-11T03:16:12.335Z,84.38
2023-01-11T03:17:12.357Z,84.20
2023-01-11T03:18:12.381Z,82.87
2023-01-11T03:19:12.433Z,82.53
2023-01-11T03:20:12.501Z,82.32
2023-01-11T03:21:12.554Z,82.22
2023-01-11T03:22:12.609Z,81.81
2023-01-11T03:23:12.598Z,81.91
2023-01-11T03:24:12.582Z,81.60
2023-01-11T03:25:12.663Z,82.46
2023-01-11T03:26:12.672Z,82.63
2023-01-11T03:27:12.691Z,82.12
2023-01-11T03:28:12.725Z,83.07
2023-01-11T03:29:12.773Z,83.28
2023-01-11T03:30:12.836Z,83.48
2023-01-11T03:31:12.908Z,83.79
2023-01-11T03:32:12.857Z,83.79
2023-01-11T03:33:12.892Z,83.89
2023-01-11T03:34:12.903Z,83.89
2023-01-11T03:35:12.964Z,84.20
2023-01-11T03:36:13.015Z,84.20
2023-01-11T03:37:13.045Z,84.30
2023-01-11T03:38:13.037Z,84.75
2023-01-11T03:39:13.106Z,85.36
2023-01-11T03:40:13.145Z,85.57
2023-01-11T03:41:13.179Z,86.12
2023-01-11T03:42:13.227Z,86.63
2023-01-11T03:43:13.301Z,87.04
2023-01-11T03:44:13.314Z,87.10
2023-01-11T03:45:13.337Z,86.79
2023-01-11T03:46:13.351Z,87.65
2023-01-11T03:47:13.417Z,87.41
2023-01-11T03:48:13.432Z,87.41
2023-01-11T03:49:13.520Z,88.47
2023-01-11T03:50:13.488Z,88.06
2023-01-11T03:51:13.570Z,88.57
2023-01-11T03:52:13.550Z,88.78
2023-01-11T03:53:13.570Z,88.78
2023-01-11T03:54:13.598Z,89.29
2023-01-11T03:55:13.640Z,88.78
2023-01-11T03:56:13.650Z,88.74
2023-01-11T03:57:13.704Z,88.64
2023-01-11T03:58:13.760Z,88.02
2023-01-11T03:59:13.772Z,88.47
2023-01-11T04:00:13.851Z,88.98
2023-01-11T04:01:13.882Z,88.68
2023-01-11T04:02:13.931Z,88.78
2023-01-11T04:03:13.922Z,87.92
2023-01-11T04:04:14.012Z,88.12
2023-01-11T04:05:14.014Z,87.96
2023-01-11T04:06:14.064Z,87.26
2023-01-11T04:07:14.073Z,85.89
2023-01-11T04:08:14.113Z,86.14
2023-01-11T04:09:14.165Z,86.04
2023-01-11T04:10:14.173Z,86.55
2023-01-11T04:11:14.188Z,86.04
2023-01-11T04:12:14.204Z,86.41
2023-01-11T04:13:14.263Z,86.44
2023-01-11T04:14:14.338Z,86.96
2023-01-11T04:15:14.375Z,86.85
2023-01-11T04:16:14.419Z,86.24
2023-01-11T04:17:14.463Z,86.41
2023-01-11T04:18:14.496Z,86.65
2023-01-11T04:19:14.498Z,86.35
2023-01-11T04:20:14.571Z,86.51
2023-01-11T04:21:14.577Z,86.35
2023-01-11T04:22:14.636Z,86.65
2023-01-11T04:23:14.637Z,87.16
2023-01-11T04:24:14.671Z,87.16
2023-01-11T04:25:14.739Z,87.67
2023-01-11T04:26:14.738Z,87.37
2023-01-11T04:27:14.814Z,87.37
2023-01-11T04:28:14.799Z,87.77
2023-01-11T04:29:14.878Z,88.33
2023-01-11T04:30:14.917Z,89.18
2023-01-11T04:31:14.985Z,89.25
2023-01-11T04:32:14.934Z,88.29
2023-01-11T04:33:14.996Z,88.79
2023-01-11T04:34:14.991Z,88.04
2023-01-11T04:35:15.043Z,87.98
2023-01-11T04:36:15.101Z,88.24
2023-01-11T04:37:15.150Z,87.84
2023-01-11T04:38:15.190Z,87.94
2023-01-11T04:39:15.193Z,89.11
2023-01-11T04:40:15.262Z,88.24
2023-01-11T04:41:15.311Z,88.04
2023-01-11T04:42:15.324Z,88.90
2023-01-11T04:43:15.391Z,89.20
2023-01-11T04:44:15.391Z,89.51
2023-01-11T04:45:15.442Z,89.11
2023-01-11T04:46:15.441Z,89.20
2023-01-11T04:47:22.480Z,89.51
2023-01-11T04:48:15.512Z,89.51
2023-01-11T04:49:15.508Z,89.61
2023-01-11T04:50:15.524Z,89.82
2023-01-11T04:51:15.476Z,89.92
2023-01-11T04:52:15.497Z,89.82
2023-01-11T04:53:15.545Z,89.47
2023-01-11T04:54:15.592Z,89.11
2023-01-11T04:55:15.606Z,89.31
2023-01-11T04:56:15.649Z,89.37
2023-01-11T04:57:15.712Z,89.41
2023-01-11T04:58:15.727Z,89.86
2023-01-11T04:59:25.725Z,90.23
2023-01-11T05:00:15.753Z,90.02
2023-01-11T05:01:15.788Z,89.51
2023-01-11T05:02:15.766Z,89.20
2023-01-11T05:03:15.826Z,88.85
2023-01-11T05:04:15.897Z,88.55
2023-01-11T05:05:15.889Z,88.55
2023-01-11T05:06:15.880Z,88.45
2023-01-11T05:08:41.929Z,88.24
2023-01-11T05:09:41.998Z,88.14
2023-01-11T05:10:42.030Z,88.76
2023-01-11T05:11:42.099Z,88.65
2023-01-11T05:12:42.059Z,88.10
2023-01-11T05:13:42.111Z,87.90
2023-01-11T05:14:42.180Z,87.84
2023-01-11T05:15:42.164Z,88.59
2023-01-11T05:16:42.339Z,88.65
2023-01-11T05:17:42.288Z,88.59
2023-01-11T05:18:42.363Z,89.11
2023-01-11T05:19:42.402Z,89.06
2023-01-11T05:20:42.401Z,88.85
2023-01-11T05:21:42.458Z,88.51
2023-01-11T05:22:42.531Z,88.65
2023-01-11T05:23:42.571Z,88.65
2023-01-11T05:24:42.611Z,88.41
2023-01-11T05:25:42.677Z,88.31
2023-01-11T05:26:42.719Z,88.31
2023-01-11T05:27:42.745Z,88.20
2023-01-11T05:28:42.790Z,88.41
2023-01-11T05:29:42.833Z,88.51
2023-01-11T05:30:42.832Z,89.06
2023-01-11T05:31:42.844Z,88.85
2023-01-11T05:32:42.904Z,89.17
2023-01-11T05:33:42.964Z,89.23
2023-01-11T05:34:42.933Z,88.96
2023-01-11T05:35:47.952Z,89.06
2023-01-11T05:36:42.946Z,89.82
2023-01-11T05:37:42.985Z,89.41
2023-01-11T05:38:43.015Z,89.98
2023-01-11T05:39:43.046Z,89.67
2023-01-11T05:40:43.111Z,89.78
2023-01-11T05:41:43.153Z,89.23
2023-01-11T05:42:43.187Z,89.12
2023-01-11T05:43:43.234Z,88.51
2023-01-11T05:44:43.237Z,88.71
2023-01-11T05:45:43.310Z,89.17
2023-01-11T05:46:43.360Z,89.43
2023-01-11T05:47:43.423Z,89.06
2023-01-11T05:48:43.468Z,89.43
2023-01-11T05:49:43.519Z,89.12
2023-01-11T05:50:43.580Z,89.06
2023-01-11T05:51:43.623Z,90.29
2023-01-11T05:52:43.617Z,89.98
2023-01-11T05:53:43.636Z,90.59
2023-01-11T05:54:46.328Z,90.90
2023-01-11T05:55:43.639Z,90.70
2023-01-11T05:56:43.660Z,89.63
2023-01-11T05:57:43.731Z,89.32
2023-01-11T05:58:44.729Z,89.23
2023-01-11T05:59:43.798Z,88.98
2023-01-11T06:00:43.793Z,89.73
2023-01-11T06:01:43.820Z,89.78
2023-01-11T06:02:43.909Z,90.19
2023-01-11T06:03:43.881Z,90.39
2023-01-11T06:04:43.891Z,90.75
2023-01-11T06:05:45.954Z,90.25
2023-01-11T06:06:43.982Z,89.59
2023-01-11T06:07:44.033Z,89.12
2023-01-11T06:08:44.082Z,89.53
2023-01-11T06:09:44.822Z,89.63
2023-01-11T06:10:44.199Z,89.84
2023-01-11T06:11:45.734Z,90.25
2023-01-11T06:12:44.195Z,89.90
2023-01-11T06:13:44.253Z,89.18
2023-01-11T06:14:44.334Z,89.84
2023-01-11T06:15:44.282Z,90.35
2023-01-11T06:16:44.357Z,90.59
2023-01-11T06:17:44.285Z,91.00
2023-01-11T06:18:44.294Z,91.00
2023-01-11T06:19:44.300Z,90.80
2023-01-11T06:20:44.288Z,91.16
2023-01-11T06:21:44.365Z,90.75
2023-01-11T06:22:44.374Z,90.45
2023-01-11T06:23:44.405Z,91.00
2023-01-11T06:24:44.446Z,91.72
2023-01-11T06:25:45.339Z,91.61
2023-01-11T06:26:44.489Z,91.61
2023-01-11T06:27:44.534Z,91.52
2023-01-11T06:28:44.602Z,91.06
2023-01-11T06:29:44.728Z,90.96
2023-01-11T06:30:44.700Z,90.86
2023-01-11T06:31:44.737Z,90.51
2023-01-11T06:32:44.743Z,90.51
2023-01-11T06:33:44.729Z,90.45
2023-01-11T06:34:44.732Z,90.96
2023-01-11T06:35:44.756Z,90.96
2023-01-11T06:36:44.763Z,91.16
2023-01-11T06:37:44.810Z,90.96
2023-01-11T06:38:44.847Z,90.41
2023-01-11T06:39:44.889Z,90.10
2023-01-11T06:40:44.920Z,90.31
2023-01-11T06:41:44.994Z,89.49
2023-01-11T06:42:45.034Z,89.94
2023-01-11T06:43:45.011Z,90.81
2023-01-11T06:44:45.058Z,90.51
2023-01-11T06:45:45.141Z,90.66
2023-01-11T06:46:45.140Z,91.37
2023-01-11T06:47:45.141Z,90.75
2023-01-11T06:48:45.141Z,91.47
2023-01-11T06:49:45.193Z,91.16
2023-01-11T06:50:45.158Z,92.02
2023-01-11T06:51:45.213Z,92.29
2023-01-11T06:52:45.222Z,91.47
2023-01-11T06:53:45.274Z,91.22
2023-01-11T06:54:45.313Z,90.36
2023-01-11T06:55:45.358Z,89.96
2023-01-11T06:56:45.378Z,89.90
2023-01-11T06:57:45.344Z,90.10
2023-01-11T06:58:47.041Z,90.71
2023-01-11T06:59:45.397Z,91.06
2023-01-11T07:00:45.445Z,91.57
2023-01-11T07:01:45.605Z,91.22
2023-01-11T07:02:45.487Z,91.22
2023-01-11T07:03:45.577Z,91.12
2023-01-11T07:04:45.603Z,90.61
2023-01-11T07:05:45.583Z,90.81
2023-01-11T07:06:45.680Z,91.02
2023-01-11T07:07:45.720Z,90.75
2023-01-11T07:08:45.747Z,91.98
2023-01-11T07:09:45.796Z,91.74
2023-01-11T07:10:45.855Z,91.74
2023-01-11T07:11:45.833Z,91.63
2023-01-11T07:12:45.870Z,90.51
2023-01-11T07:13:45.922Z,90.67
2023-01-11T07:14:45.918Z,90.81
2023-01-11T07:15:46.008Z,91.02
2023-01-11T07:16:46.008Z,91.12
2023-01-11T07:17:46.005Z,91.12
2023-01-11T07:18:46.767Z,90.81
2023-01-11T07:19:46.118Z,91.37
2023-01-11T07:20:46.150Z,91.74
2023-01-11T07:21:46.200Z,90.92
2023-01-11T07:22:46.247Z,91.57
2023-01-11T07:23:46.323Z,91.53
2023-01-11T07:24:48.412Z,90.92
2023-01-11T07:25:46.352Z,91.43
2023-01-11T07:26:46.362Z,91.22
2023-01-11T07:27:46.362Z,91.67
2023-01-11T07:28:46.382Z,91.94
2023-01-11T07:29:46.401Z,90.88
2023-01-11T07:30:58.063Z,90.81
2023-01-11T07:31:46.547Z,90.92
2023-01-11T07:32:46.526Z,90.92
2023-01-11T07:33:46.606Z,90.81
2023-01-11T07:34:46.598Z,91.12
2023-01-11T07:35:46.614Z,91.33
2023-01-11T07:36:46.645Z,91.02
2023-01-11T07:37:46.635Z,91.33
2023-01-11T07:38:46.687Z,91.74
2023-01-11T07:39:46.671Z,91.43
2023-01-11T07:40:46.702Z,91.43
2023-01-11T07:41:46.831Z,91.12
2023-01-11T07:42:46.792Z,90.92
2023-01-11T07:43:46.838Z,91.02
2023-01-11T07:44:46.880Z,91.22
2023-01-11T07:45:47.294Z,91.53
2023-01-11T07:46:46.999Z,91.33
2023-01-11T07:47:46.986Z,90.67
2023-01-11T07:48:47.005Z,90.81
2023-01-11T07:49:47.002Z,90.88
2023-01-11T07:50:46.999Z,89.71
2023-01-11T07:51:47.016Z,89.51
2023-01-11T07:52:47.001Z,89.65
2023-01-11T07:53:46.988Z,90.67
2023-01-11T07:54:47.045Z,90.36
2023-01-11T07:55:47.088Z,90.01
2023-01-11T07:56:47.075Z,89.51
2023-01-11T07:57:47.092Z,89.81
2023-01-11T07:58:47.081Z,90.06
2023-01-11T07:59:47.075Z,90.53
2023-01-11T08:00:47.090Z,89.20
2023-01-11T08:01:47.126Z,89.51
2023-01-11T08:02:47.188Z,89.40
2023-01-11T08:03:47.243Z,90.06
2023-01-11T08:04:47.146Z,90.16
2023-01-11T08:05:47.172Z,90.16
2023-01-11T08:06:47.147Z,90.47
2023-01-11T08:07:47.214Z,90.26
2023-01-11T08:08:47.205Z,90.53
2023-01-11T08:09:47.214Z,89.81
2023-01-11T08:10:47.217Z,89.36
2023-01-11T08:11:47.264Z,88.75
2023-01-11T08:12:47.250Z,89.26
2023-01-11T08:13:47.263Z,89.47
2023-01-11T08:14:47.267Z,88.96
2023-01-11T08:15:47.524Z,89.71
2023-01-11T08:16:47.356Z,89.30
2023-01-11T08:17:47.389Z,89.81
2023-01-11T08:18:47.390Z,89.51
2023-01-11T08:19:47.407Z,89.96
2023-01-11T08:20:47.431Z,90.26
2023-01-11T08:21:47.437Z,90.32
2023-01-11T08:22:47.445Z,89.47
2023-01-11T08:23:47.459Z,88.55
2023-01-11T08:24:47.468Z,88.96
2023-01-11T08:25:47.478Z,89.40
2023-01-11T08:26:47.482Z,89.40
2023-01-11T08:27:47.540Z,89.81
2023-01-11T08:28:47.503Z,90.32
2023-01-11T08:29:47.517Z,90.42
2023-01-11T08:30:47.569Z,90.42
2023-01-11T08:31:47.598Z,90.53
2023-01-11T08:32:47.610Z,90.32
2023-01-11T08:33:47.609Z,90.73
2023-01-11T08:34:47.619Z,90.16
2023-01-11T08:35:47.631Z,91.03
2023-01-11T08:36:47.629Z,90.83
2023-01-11T08:37:47.627Z,90.12
2023-01-11T08:38:47.690Z,90.53
2023-01-11T08:39:47.682Z,90.83
2023-01-11T08:40:47.773Z,90.98
2023-01-11T08:41:47.772Z,91.39
2023-01-11T08:42:47.791Z,91.03
2023-01-11T08:43:47.794Z,91.44
2023-01-11T08:44:47.814Z,91.03
2023-01-11T08:45:47.863Z,90.12
2023-01-11T08:46:47.976Z,90.63
2023-01-11T08:47:47.948Z,90.83
2023-01-11T08:48:47.960Z,90.89
2023-01-11T08:49:47.970Z,90.53
2023-01-11T08:50:47.955Z,91.35
2023-01-11T08:51:47.986Z,91.03
2023-01-11T08:52:48.010Z,90.59
2023-01-11T08:53:48.046Z,89.53
2023-01-11T08:54:48.034Z,89.06
2023-01-11T08:55:48.063Z,90.08
2023-01-11T08:56:48.103Z,90.48
2023-01-11T08:57:48.126Z,89.77
2023-01-11T08:58:48.138Z,90.69
2023-01-11T08:59:48.170Z,90.28
2023-01-11T09:00:48.221Z,91.03
2023-01-11T09:01:48.312Z,90.79
2023-01-11T09:02:48.246Z,89.77
2023-01-11T09:03:48.291Z,90.94
2023-01-11T09:04:48.322Z,90.89
2023-01-11T09:05:48.298Z,90.73
2023-01-11T09:06:48.379Z,90.99
2023-01-11T09:07:48.382Z,90.03
2023-01-11T09:08:48.368Z,90.08
2023-01-11T09:09:48.393Z,90.24
2023-01-11T09:10:48.379Z,89.83
2023-01-11T09:11:48.382Z,89.53
2023-01-11T09:12:48.391Z,89.67
2023-01-11T09:13:48.381Z,90.28
2023-01-11T09:14:48.481Z,90.12
2023-01-11T09:15:48.632Z,91.55
2023-01-11T09:16:48.501Z,90.99
2023-01-11T09:17:48.526Z,90.69
2023-01-11T09:18:48.572Z,91.44
2023-01-11T09:19:48.582Z,91.30
2023-01-11T09:20:48.593Z,90.38
2023-01-11T09:21:48.661Z,90.99
2023-01-11T09:22:48.815Z,90.55
2023-01-11T09:23:48.723Z,90.14
2023-01-11T09:24:48.717Z,89.77
2023-01-11T09:25:48.732Z,90.03
2023-01-11T09:26:48.803Z,89.63
2023-01-11T09:27:48.834Z,89.73
2023-01-11T09:28:48.899Z,90.79
2023-01-11T09:29:48.924Z,91.30
2023-01-11T09:30:48.956Z,90.75
2023-01-11T09:31:48.957Z,90.24
2023-01-11T09:32:48.996Z,90.34
2023-01-11T09:33:49.045Z,90.85
2023-01-11T09:34:49.088Z,90.03
2023-01-11T09:35:49.114Z,90.20
2023-01-11T09:36:49.269Z,89.18
2023-01-11T09:37:49.163Z,88.98
2023-01-11T09:38:49.210Z,89.83
2023-01-11T09:39:49.227Z,90.38
2023-01-11T09:40:49.269Z,90.95
2023-01-11T09:41:49.266Z,90.34
2023-01-11T09:42:49.296Z,90.64
2023-01-11T09:43:49.291Z,91.09
2023-01-11T09:44:49.290Z,91.30
2023-01-11T09:45:49.310Z,91.71
2023-01-11T09:46:49.420Z,91.20
2023-01-11T09:47:49.402Z,91.50
2023-01-11T09:48:49.409Z,91.09
2023-01-11T09:49:49.452Z,91.61
2023-01-11T09:50:49.599Z,91.46
2023-01-11T09:51:49.483Z,90.70
2023-01-11T09:52:49.536Z,89.48
2023-01-11T09:53:49.569Z,90.24
2023-01-11T09:54:49.622Z,90.24
2023-01-11T09:55:49.642Z,91.03
2023-01-11T09:56:49.697Z,92.01
2023-01-11T09:57:49.700Z,91.50
2023-01-11T09:58:49.736Z,91.16
2023-01-11T09:59:49.743Z,91.16
2023-01-11T10:00:49.797Z,90.55
2023-01-11T10:01:49.774Z,90.48
2023-01-11T10:02:49.825Z,91.36
2023-01-11T10:03:49.853Z,90.91
2023-01-11T10:04:49.953Z,89.79
2023-01-11T10:05:49.948Z,90.34
2023-01-11T10:06:49.980Z,90.34
2023-01-11T10:07:50.048Z,90.20
2023-01-11T10:18:25.374Z,89.99
2023-01-11T10:18:26.736Z,89.89
2023-01-11T10:18:31.222Z,90.55
2023-01-11T10:18:32.089Z,90.85
2023-01-11T10:19:18.459Z,91.16
2023-01-11T10:19:50.575Z,91.16
2023-01-11T10:20:50.546Z,90.60
2023-01-11T10:21:50.539Z,90.85
2023-01-11T10:22:50.588Z,90.75
2023-01-11T10:23:50.608Z,90.64
2023-01-11T10:24:50.651Z,91.20
2023-01-11T10:25:50.631Z,91.81
2023-01-11T10:26:50.745Z,92.01
2023-01-11T10:27:50.703Z,91.50
2023-01-11T10:28:50.722Z,92.42
2023-01-11T10:29:50.750Z,92.32
2023-01-11T10:30:50.745Z,91.56
2023-01-11T10:31:50.840Z,91.40
2023-01-11T10:32:50.784Z,92.32
2023-01-11T10:33:50.834Z,92.32
2023-01-11T10:34:50.907Z,92.18
2023-01-11T10:35:50.886Z,91.56
2023-01-11T10:36:50.928Z,91.46
2023-01-11T10:37:50.976Z,90.85
2023-01-11T10:38:51.015Z,91.61
2023-01-11T10:39:51.015Z,91.97
2023-01-11T10:40:51.037Z,91.36
2023-01-11T10:41:51.042Z,91.81
2023-01-11T10:42:51.106Z,92.22
2023-01-11T10:43:51.104Z,92.11
2023-01-11T10:44:51.115Z,92.11
2023-01-11T10:45:51.409Z,91.61
2023-01-11T10:46:51.174Z,92.22
2023-01-11T10:47:51.227Z,91.91
2023-01-11T10:48:51.291Z,92.46
2023-01-11T10:49:51.323Z,92.42
2023-01-11T10:50:51.332Z,91.05
2023-01-11T10:51:51.361Z,91.36
2023-01-11T10:52:51.424Z,91.36
2023-01-11T10:53:51.507Z,91.50
2023-01-11T10:54:51.551Z,91.81
2023-01-11T10:55:51.576Z,92.11
2023-01-11T10:57:03.183Z,92.32
2023-01-11T10:58:01.224Z,91.77
2023-01-11T10:58:51.609Z,91.30
2023-01-11T10:59:51.647Z,92.67
2023-01-11T11:00:51.745Z,92.48
2023-01-11T11:01:51.757Z,91.40
2023-01-11T11:02:51.751Z,91.50
2023-01-11T11:03:51.792Z,91.50
2023-01-11T11:04:51.796Z,91.50
2023-01-11T11:05:51.833Z,91.91
2023-01-11T11:06:51.886Z,91.81
2023-01-11T11:07:51.957Z,91.71
2023-01-11T11:08:52.005Z,91.30
2023-01-11T11:09:52.044Z,91.40
2023-01-11T11:10:52.082Z,91.71
2023-01-11T11:11:52.147Z,90.85
2023-01-11T11:12:52.157Z,90.64
2023-01-11T11:13:52.164Z,89.94
2023-01-11T11:14:52.186Z,90.59
2023-01-11T11:15:53.491Z,90.89
2023-01-11T11:16:52.230Z,90.44
2023-01-11T11:17:52.276Z,90.14
2023-01-11T11:18:52.288Z,90.48
2023-01-11T11:19:52.307Z,89.97
2023-01-11T11:20:52.367Z,90.03
2023-01-11T11:21:52.370Z,89.83
2023-01-11T11:22:52.379Z,90.14
2023-01-11T11:23:52.408Z,89.18
2023-01-11T11:24:52.407Z,89.12
2023-01-11T11:25:52.473Z,89.67
2023-01-11T11:26:52.505Z,89.77
2023-01-11T11:27:52.508Z,89.94
2023-01-11T11:28:52.563Z,89.32
2023-01-11T11:29:52.599Z,89.47
2023-01-11T11:30:52.623Z,89.42
2023-01-11T11:31:52.674Z,89.16
2023-01-11T11:32:52.677Z,89.42
2023-01-11T11:33:52.681Z,88.46
2023-01-11T11:34:52.728Z,88.36
2023-01-11T11:35:52.695Z,87.90
2023-01-11T11:36:52.711Z,88.00
2023-01-11T11:37:52.810Z,89.06
2023-01-11T11:38:53.791Z,88.92
2023-01-11T11:39:52.852Z,88.26
2023-01-11T11:40:52.822Z,88.51
2023-01-11T11:41:52.850Z,88.26
2023-01-11T11:42:52.842Z,88.16
2023-01-11T11:43:52.893Z,87.85
2023-01-11T11:44:52.898Z,87.79
2023-01-11T11:45:52.965Z,88.40
2023-01-11T11:46:52.943Z,88.34
2023-01-11T11:47:52.934Z,88.34
2023-01-11T11:48:52.984Z,88.24
2023-01-11T11:49:53.003Z,88.65
2023-01-11T11:50:53.064Z,87.79
2023-01-11T11:51:53.087Z,87.69
2023-01-11T11:52:53.086Z,86.77
2023-01-11T11:53:53.096Z,86.88
2023-01-11T11:54:53.167Z,87.02
2023-01-11T11:55:53.181Z,87.57
2023-01-11T11:56:53.209Z,87.57
2023-01-11T11:57:53.255Z,87.98
2023-01-11T11:58:53.309Z,87.12
2023-01-11T11:59:53.337Z,87.77
2023-01-11T12:00:53.405Z,87.57
2023-01-11T12:01:53.430Z,87.06
2023-01-11T12:02:53.480Z,86.71
2023-01-11T12:03:53.573Z,87.26
2023-01-11T12:04:53.566Z,86.82
2023-01-11T12:05:53.609Z,87.26
2023-01-11T12:06:53.598Z,86.92
2023-01-11T12:07:55.397Z,86.57
2023-01-11T12:08:53.709Z,85.86
2023-01-11T12:09:53.719Z,86.21
2023-01-11T12:10:53.731Z,86.47
2023-01-11T12:11:53.782Z,86.27
2023-01-11T12:12:53.770Z,86.30
2023-01-11T12:13:53.840Z,86.41
2023-01-11T12:14:53.872Z,86.47
2023-01-11T12:15:53.941Z,86.27
2023-01-11T12:16:54.000Z,86.27
2023-01-11T12:17:53.970Z,85.72
2023-01-11T12:18:53.975Z,85.14
2023-01-11T12:19:54.014Z,86.30
2023-01-11T12:20:54.011Z,86.33
2023-01-11T12:21:54.063Z,85.82
2023-01-11T12:22:54.053Z,85.41
2023-01-11T12:23:54.061Z,85.11
2023-01-11T12:24:54.102Z,84.84
2023-01-11T12:25:54.141Z,85.19
2023-01-11T12:26:54.264Z,85.69
2023-01-11T12:27:54.204Z,84.58
2023-01-11T12:28:54.226Z,84.92
2023-01-11T12:29:54.217Z,84.20
2023-01-11T12:30:54.281Z,84.31
2023-01-11T12:31:54.265Z,84.11
2023-01-11T12:32:54.272Z,83.90
2023-01-11T12:33:54.302Z,82.78
2023-01-11T12:34:54.312Z,83.23
2023-01-11T12:35:54.306Z,82.74
2023-01-11T12:36:54.327Z,80.83
2023-01-11T12:37:54.340Z,79.16
2023-01-11T12:38:54.357Z,79.37
2023-01-11T12:39:54.357Z,78.45
2023-01-11T12:40:54.387Z,79.91
2023-01-11T12:41:54.471Z,79.09
2023-01-11T12:42:54.508Z,77.22
2023-01-11T12:43:54.550Z,77.05
2023-01-11T12:44:54.559Z,75.79
2023-01-11T12:45:54.588Z,74.58
2023-01-11T12:46:54.636Z,76.82
2023-01-11T12:47:54.719Z,77.12
2023-01-11T12:48:54.734Z,76.31
2023-01-11T12:49:55.748Z,76.14
2023-01-11T12:50:54.817Z,75.32
2023-01-11T12:51:54.875Z,75.56
2023-01-11T12:52:54.966Z,77.12
2023-01-11T12:53:54.991Z,77.26
2023-01-11T12:54:55.041Z,77.16
2023-01-11T12:55:55.082Z,77.26
2023-01-11T12:56:55.083Z,76.34
2023-01-11T12:57:55.093Z,76.48
2023-01-11T12:58:55.133Z,76.38
2023-01-11T12:59:55.181Z,77.16